Time;durP1;ratioP1;P1;durP2;ratioP2;P2;SDS_P1;SDS_P2;PMS_P1;PMS_P2;Temp;Humidity;BMP_temperature;BMP_pressure;BME280_temperature;BME280_humidity;BME280_pressure;Samples;Min_cycle;Max_cycle;Signal;HPM_P1;HPM_P2
2021/10/13 00:02:01;;;;;;;13.63;7.40;;;;;;;-144.51;100.00;69251.94;4874104;29;20053;-63
2021/10/13 00:04:46;;;;;;;;;;;;;;;-144.51;100.00;69251.94;4865299;29;20045;-63
2021/10/13 00:07:31;;;;;;;9.93;6.63;;;;;;;-144.51;100.00;69251.94;4864578;29;19916;-63
2021/10/13 00:10:16;;;;;;;11.57;6.88;;;;;;;-144.51;100.00;69251.94;4871982;29;20048;-63
2021/10/13 00:13:01;;;;;;;;;;;;;;;-144.51;100.00;69251.94;4870611;29;20045;-64
2021/10/13 00:15:46;;;;;;;13.82;7.13;;;;;;;-144.51;100.00;69251.94;4864988;29;19920;-64
2021/10/13 00:18:32;;;;;;;8.77;5.50;;;;;;;-144.51;100.00;69251.94;4866980;29;20045;-64
2021/10/13 00:21:17;;;;;;;12.00;6.60;;;;;;;-144.51;100.00;69251.94;4870175;29;20033;-63
2021/10/13 00:24:02;;;;;;;8.93;5.03;;;;;;;-144.51;100.00;69251.94;4868365;29;20041;-65
2021/10/13 00:26:47;;;;;;;11.02;6.32;;;;;;;-144.51;100.00;69251.94;4865522;29;21305;-64
2021/10/13 00:29:34;;;;;;;;;;;;;;;-144.51;100.00;69251.94;4866183;29;20053;-64
2021/10/13 00:32:18;;;;;;;10.20;6.47;;;;;;;-144.51;100.00;69251.94;4874362;29;19915;-64
2021/10/13 00:35:04;;;;;;;8.57;5.55;;;;;;;-144.51;100.00;69251.94;4868297;29;20490;-64
2021/10/13 00:37:48;;;;;;;;;;;;;;;-144.51;100.00;69251.94;4894163;23;20049;-60
2021/10/13 00:40:33;;;;;;;10.55;6.53;;;;;;;-144.51;100.00;69251.94;4871377;29;19923;-60
2021/10/13 00:43:18;;;;;;;9.23;5.28;;;;;;;-144.51;100.00;69251.94;4878005;29;20041;-60
2021/10/13 00:46:03;;;;;;;11.40;6.82;;;;;;;-144.51;100.00;69251.94;4878031;29;20057;-60
2021/10/13 00:48:48;;;;;;;7.38;4.53;;;;;;;-144.51;100.00;69251.94;4877328;29;20045;-60
2021/10/13 00:51:33;;;;;;;;;;;;;;;-144.51;100.00;69251.94;4872480;29;20057;-60
2021/10/13 00:54:18;;;;;;;12.97;7.03;;;;;;;-144.51;100.00;69251.94;4878420;29;19915;-60
2021/10/13 00:57:04;;;;;;;11.57;6.15;;;;;;;-144.51;100.00;69251.94;4893369;29;20485;-60
2021/10/13 00:59:48;;;;;;;10.75;6.95;;;;;;;-144.51;100.00;69251.94;4872881;29;20053;-59
2021/10/13 01:02:41;;;;;;;;;;;;;;;-144.51;100.00;69251.94;4878169;29;20044;-60
2021/10/13 01:05:59;;;;;;;9.23;6.00;;;;;;;-144.51;100.00;69251.94;4878049;29;20367;-60
2021/10/13 01:08:49;;;;;;;9.63;6.72;;;;;;;-144.51;100.00;69251.94;4877819;29;20929;-60
2021/10/13 01:11:46;;;;;;;12.13;6.10;;;;;;;-144.51;100.00;69251.94;4878421;29;20497;-60
2021/10/13 01:14:57;;;;;;;11.60;6.97;;;;;;;-144.51;100.00;69251.94;4878492;29;20053;-60
2021/10/13 01:17:57;;;;;;;9.30;5.93;;;;;;;-144.51;100.00;69251.94;4873009;29;20049;-60
2021/10/13 01:20:57;;;;;;;11.50;6.55;;;;;;;-144.51;100.00;69251.94;4872359;29;20053;-60
2021/10/13 01:24:06;;;;;;;12.10;6.50;;;;;;;-144.51;100.00;69251.94;4859940;29;20427;-60
2021/10/13 01:27:00;;;;;;;11.05;6.28;;;;;;;-144.51;100.00;69251.94;4859774;29;20053;-59
2021/10/13 01:29:47;;;;;;;10.45;6.80;;;;;;;-144.51;100.00;69251.94;4859909;29;20045;-60
2021/10/13 01:32:36;;;;;;;12.27;7.15;;;;;;;-144.51;100.00;69251.94;4872209;29;20041;-60
2021/10/13 01:35:22;;;;;;;12.07;6.75;;;;;;;-144.51;100.00;69251.94;4877972;29;20049;-60
2021/10/13 01:38:12;;;;;;;11.38;6.25;;;;;;;-144.51;100.00;69251.94;4878231;29;20045;-60
2021/10/13 01:41:02;;;;;;;13.50;6.57;;;;;;;-144.51;100.00;69251.94;4874189;29;20041;-60
2021/10/13 01:43:51;;;;;;;10.98;6.30;;;;;;;-144.51;100.00;69251.94;4882703;29;20497;-60
2021/10/13 01:46:37;;;;;;;11.23;6.55;;;;;;;-144.51;100.00;69251.94;4863772;29;20049;-59
2021/10/13 01:49:23;;;;;;;14.52;6.95;;;;;;;-144.51;100.00;69251.94;4871035;29;20416;-60
2021/10/13 01:52:10;;;;;;;14.43;6.38;;;;;;;-144.51;100.00;69251.94;4882726;29;20041;-60
2021/10/13 01:54:58;;;;;;;11.60;6.50;;;;;;;-144.51;100.00;69251.94;4882015;29;20049;-60
2021/10/13 01:57:47;;;;;;;10.75;6.20;;;;;;;-144.51;100.00;69251.94;4881030;29;20045;-60
2021/10/13 02:00:32;;;;;;;10.27;5.90;;;;;;;-144.51;100.00;69251.94;4881534;29;20529;-60
2021/10/13 02:03:18;;;;;;;;;;;;;;;-144.51;100.00;69251.94;4881673;29;20049;-60
2021/10/13 02:06:05;;;;;;;13.23;7.38;;;;;;;-144.51;100.00;69251.94;4881596;29;19919;-60
2021/10/13 02:08:55;;;;;;;11.18;6.88;;;;;;;-144.51;100.00;69251.94;4875526;29;20045;-60
2021/10/13 02:11:41;;;;;;;9.85;6.20;;;;;;;-144.51;100.00;69251.94;4876619;29;20053;-60
2021/10/13 02:14:28;;;;;;;12.25;6.57;;;;;;;-144.51;100.00;69251.94;4881643;29;20053;-60
2021/10/13 02:17:15;;;;;;;9.23;5.88;;;;;;;-144.51;100.00;69251.94;4881172;29;20049;-60
2021/10/13 02:20:01;;;;;;;11.65;6.75;;;;;;;-144.51;100.00;69251.94;4878379;29;20041;-60
2021/10/13 02:22:54;;;;;;;10.20;6.57;;;;;;;-144.51;100.00;69251.94;4880988;29;20497;-60
2021/10/13 02:25:44;;;;;;;16.15;6.28;;;;;;;-144.51;100.00;69251.94;4884423;29;20032;-60
2021/10/13 02:28:37;;;;;;;20.65;11.30;;;;;;;-144.51;100.00;69251.94;4870577;29;20037;-60
2021/10/13 02:31:22;;;;;;;17.13;10.80;;;;;;;-144.51;100.00;69251.94;4892614;29;20041;-60
2021/10/13 02:34:07;;;;;;;;;;;;;;;-144.51;100.00;69251.94;4890978;29;20053;-60
2021/10/13 02:36:52;;;;;;;11.30;7.72;;;;;;;-144.51;100.00;69251.94;4875463;29;19916;-60
2021/10/13 02:39:37;;;;;;;11.88;7.22;;;;;;;-144.51;100.00;69251.94;4875601;29;20045;-59
2021/10/13 02:42:22;;;;;;;12.50;6.45;;;;;;;-144.51;100.00;69251.94;4864569;29;20049;-60
2021/10/13 02:45:08;;;;;;;17.95;7.82;;;;;;;-144.51;100.00;69251.94;4862588;29;20049;-60
2021/10/13 02:47:57;;;;;;;11.60;6.53;;;;;;;-144.51;100.00;69251.94;4883926;29;20041;-60
2021/10/13 02:50:46;;;;;;;14.40;7.38;;;;;;;-144.51;100.00;69251.94;4876136;29;20048;-60
2021/10/13 02:53:42;;;;;;;13.05;7.57;;;;;;;-144.51;100.00;69251.94;4865123;29;20409;-62
2021/10/13 02:56:40;;;;;;;13.80;7.80;;;;;;;-144.51;100.00;69251.94;4862457;29;20050;-62
2021/10/13 02:59:37;;;;;;;16.88;8.40;;;;;;;-144.51;100.00;69251.94;4867125;29;20049;-62
2021/10/13 03:02:31;;;;;;;12.45;6.43;;;;;;;-144.51;100.00;69251.94;4880731;29;20084;-62
2021/10/13 03:05:20;;;;;;;12.80;6.53;;;;;;;-144.51;100.00;69251.94;4880555;29;20044;-62
2021/10/13 03:08:13;;;;;;;15.02;6.80;;;;;;;-144.51;100.00;69251.94;4878670;29;20045;-62
2021/10/13 03:10:58;;;;;;;14.10;7.53;;;;;;;-144.51;100.00;69251.94;4878718;29;20655;-62
2021/10/13 03:13:47;;;;;;;12.07;6.78;;;;;;;-144.51;100.00;69251.94;4878285;29;20061;-62
2021/10/13 03:16:35;;;;;;;11.95;6.95;;;;;;;-144.51;100.00;69251.94;4861460;29;20049;-62
2021/10/13 03:19:22;;;;;;;18.77;10.70;;;;;;;-144.51;100.00;69251.94;4872493;29;20037;-62
2021/10/13 03:22:08;;;;;;;14.60;8.02;;;;;;;-144.51;100.00;69251.94;4880159;29;20036;-61
2021/10/13 03:24:53;;;;;;;16.70;10.20;;;;;;;-144.51;100.00;69251.94;4879685;29;20049;-62
2021/10/13 03:27:38;;;;;;;9.60;5.45;;;;;;;-144.51;100.00;69251.94;4879663;29;20041;-62
2021/10/13 03:30:22;;;;;;;;;;;;;;;-144.51;100.00;69251.94;4872940;29;20048;-62
2021/10/13 03:33:07;;;;;;;10.40;6.82;;;;;;;-144.51;100.00;69251.94;4879655;29;19916;-61
2021/10/13 03:35:52;;;;;;;7.15;4.22;;;;;;;-144.51;100.00;69251.94;4867199;29;20050;-61
2021/10/13 03:38:37;;;;;;;;;;;;;;;-144.51;100.00;69251.94;4863031;29;20041;-61
2021/10/13 03:41:22;;;;;;;13.63;8.07;;;;;;;-144.51;100.00;69251.94;4871799;29;19915;-62
2021/10/13 03:44:07;;;;;;;12.30;6.93;;;;;;;-144.51;100.00;69251.94;4879726;29;20052;-62
2021/10/13 03:46:52;;;;;;;10.68;6.70;;;;;;;-144.51;100.00;69251.94;4860921;29;20498;-62
2021/10/13 03:49:37;;;;;;;9.77;5.15;;;;;;;-144.51;100.00;69251.94;4870181;29;20033;-62
2021/10/13 03:52:21;;;;;;;7.35;4.45;;;;;;;-144.51;100.00;69251.94;4879839;29;20044;-61
2021/10/13 03:55:09;;;;;;;12.40;6.60;;;;;;;-144.51;100.00;69251.94;4878290;29;20041;-61
2021/10/13 03:57:53;;;;;;;13.38;6.18;;;;;;;-144.51;100.00;69251.94;4879321;29;20489;-61
2021/10/13 04:00:38;;;;;;;13.25;6.70;;;;;;;-144.51;100.00;69251.94;4869982;29;20493;-62
2021/10/13 04:03:23;;;;;;;;;;;;;;;-144.51;100.00;69251.94;4878811;29;20057;-62
2021/10/13 04:06:09;;;;;;;15.52;8.98;;;;;;;-144.51;100.00;69251.94;4863228;29;19916;-61
2021/10/13 04:08:53;;;;;;;10.98;8.02;;;;;;;-144.51;100.00;69251.94;4868097;29;20053;-62
2021/10/13 04:11:38;;;;;;;;;;;;;;;-144.51;100.00;69251.94;4878004;29;20041;-62
2021/10/13 04:14:23;;;;;;;10.70;5.85;;;;;;;-144.51;100.00;69251.94;4875089;29;19916;-61
2021/10/13 04:17:08;;;;;;;9.75;6.78;;;;;;;-144.51;100.00;69251.94;4878807;29;20040;-62
2021/10/13 04:19:53;;;;;;;12.02;7.28;;;;;;;-144.51;100.00;69251.94;4875045;29;20509;-62
2021/10/13 04:22:38;;;;;;;;;;;;;;;-144.51;100.00;69251.94;4883328;29;20505;-62
2021/10/13 04:25:23;;;;;;;10.75;5.80;;;;;;;-144.51;100.00;69251.94;4877136;29;19919;-62
2021/10/13 04:28:07;;;;;;;;;;;;;;;-144.51;100.00;69251.94;4875482;29;20045;-62
2021/10/13 04:30:52;;;;;;;10.45;6.13;;;;;;;-144.51;100.00;69251.94;4870960;29;19915;-61
2021/10/13 04:33:36;;;;;;;;;;;;;;;-144.51;100.00;69251.94;4877061;29;20037;-61
2021/10/13 04:36:21;;;;;;;14.20;6.38;;;;;;;-144.51;100.00;69251.94;4877584;29;19919;-62
2021/10/13 04:39:06;;;;;;;13.68;8.18;;;;;;;-144.51;100.00;69251.94;4875464;29;20049;-61
2021/10/13 04:41:50;;;;;;;;;;;;;;;-144.51;100.00;69251.94;4876055;29;20057;-62
2021/10/13 04:44:35;;;;;;;23.00;12.70;;;;;;;-144.51;100.00;69251.94;4876441;29;19998;-62
2021/10/13 04:47:20;;;;;;;21.70;12.30;;;;;;;-144.51;100.00;69251.94;4877555;29;20412;-62
2021/10/13 04:50:06;;;;;;;15.60;9.90;;;;;;;-144.51;100.00;69251.94;4865283;29;20049;-61
2021/10/13 04:52:51;;;;;;;26.60;12.00;;;;;;;-144.51;100.00;69251.94;4872274;29;20057;-61
2021/10/13 04:55:35;;;;;;;19.58;10.32;;;;;;;-144.51;100.00;69251.94;4871584;29;20450;-61
2021/10/13 04:58:20;;;;;;;22.50;12.32;;;;;;;-144.51;100.00;69251.94;4869414;29;20049;-62
2021/10/13 05:01:07;;;;;;;24.90;13.40;;;;;;;-144.51;100.00;69251.94;4866129;29;20041;-62
2021/10/13 05:03:52;;;;;;;18.75;11.88;;;;;;;-144.51;100.00;69251.94;4878424;29;20053;-61
2021/10/13 05:06:37;;;;;;;15.30;8.90;;;;;;;-144.51;100.00;69251.94;4872744;29;20032;-62
2021/10/13 05:09:21;;;;;;;17.20;10.77;;;;;;;-144.51;100.00;69251.94;4872359;29;20040;-61
2021/10/13 05:12:06;;;;;;;26.02;12.73;;;;;;;-144.51;100.00;69251.94;4875518;29;20429;-61
2021/10/13 05:14:51;;;;;;;19.27;11.90;;;;;;;-144.51;100.00;69251.94;4873669;29;20049;-61
2021/10/13 05:17:36;;;;;;;;;;;;;;;-144.51;100.00;69251.94;4875997;29;20037;-61
2021/10/13 05:20:21;;;;;;;17.88;10.68;;;;;;;-144.51;100.00;69251.94;4867274;29;19916;-61
2021/10/13 05:23:06;;;;;;;;;;;;;;;-144.51;100.00;69251.94;4872561;29;20494;-61
2021/10/13 05:25:50;;;;;;;23.88;11.40;;;;;;;-144.51;100.00;69251.94;4873879;29;20269;-61
2021/10/13 05:28:35;;;;;;;16.23;8.15;;;;;;;-144.51;100.00;69251.94;4878032;29;20041;-61
2021/10/13 05:31:20;;;;;;;14.93;8.15;;;;;;;-144.51;100.00;69251.94;4878294;29;20052;-61
2021/10/13 05:34:05;;;;;;;12.13;7.68;;;;;;;-144.51;100.00;69251.94;4877232;29;20045;-61
2021/10/13 05:36:50;;;;;;;;;;;;;;;-144.51;100.00;69251.94;4864880;29;20589;-61
2021/10/13 05:39:35;;;;;;;22.90;11.68;;;;;;;-144.51;100.00;69251.94;4871489;29;19920;-61
2021/10/13 05:42:20;;;;;;;14.32;8.43;;;;;;;-144.51;100.00;69251.94;4873653;29;20049;-61
2021/10/13 05:45:05;;;;;;;16.75;9.85;;;;;;;-144.51;100.00;69251.94;4869752;29;20045;-62
2021/10/13 05:47:50;;;;;;;21.42;12.68;;;;;;;-144.51;100.00;69251.94;4874038;29;20048;-62
2021/10/13 05:50:35;;;;;;;19.30;10.50;;;;;;;-144.51;100.00;69251.94;4859523;29;20494;-61
2021/10/13 05:53:22;;;;;;;24.35;13.98;;;;;;;-144.51;100.00;69251.94;4859562;29;20050;-61
2021/10/13 05:56:07;;;;;;;24.73;13.63;;;;;;;-144.51;100.00;69251.94;4859388;29;20406;-61
2021/10/13 05:58:53;;;;;;;16.38;9.05;;;;;;;-144.51;100.00;69251.94;4859431;29;20654;-61
2021/10/13 06:01:38;;;;;;;30.00;12.00;;;;;;;-144.51;100.00;69251.94;4859316;29;20042;-61
2021/10/13 06:04:23;;;;;;;26.83;13.15;;;;;;;-144.51;100.00;69251.94;4870091;29;20049;-62
2021/10/13 06:07:07;;;;;;;21.58;11.90;;;;;;;-144.51;100.00;69251.94;4873665;29;20041;-62
2021/10/13 06:09:52;;;;;;;30.52;11.55;;;;;;;-144.51;100.00;69251.94;4887497;29;20049;-62
2021/10/13 06:12:37;;;;;;;18.98;9.32;;;;;;;-144.51;100.00;69251.94;4874658;29;20041;-62
2021/10/13 06:15:24;;;;;;;;;;;;;;;-144.51;100.00;69251.94;4877610;29;20045;-62
2021/10/13 06:18:08;;;;;;;;;;;;;;;-144.51;100.00;69251.94;4877066;29;19920;-61
2021/10/13 06:20:53;;;;;;;25.05;13.40;;;;;;;-144.51;100.00;69251.94;4877196;29;19916;-60
2021/10/13 06:23:38;;;;;;;15.98;8.38;;;;;;;-144.51;100.00;69251.94;4876982;29;20062;-61
2021/10/13 06:26:22;;;;;;;;;;;;;;;-144.51;100.00;69251.94;4870503;29;20335;-61
2021/10/13 06:29:07;;;;;;;15.80;7.85;;;;;;;-144.51;100.00;69251.94;4881023;29;20269;-61
2021/10/13 06:31:52;;;;;;;7.80;4.95;;;;;;;-144.51;100.00;69251.94;4881187;29;20040;-61
2021/10/13 06:34:37;;;;;;;19.42;5.03;;;;;;;-144.51;100.00;69251.94;4881153;29;20659;-61
2021/10/13 06:37:21;;;;;;;7.35;4.35;;;;;;;-144.51;100.00;69251.94;4880580;29;20049;-60
2021/10/13 06:39:59;;;;;;;17.65;5.50;;;;;;;-144.51;100.00;69251.94;4909153;29;20055;-63
2021/10/13 06:42:44;;;;;;;15.00;7.25;;;;;;;-144.51;100.00;69251.94;4911745;29;20056;-63
2021/10/13 06:45:29;;;;;;;26.10;12.60;;;;;;;-144.51;100.00;69251.94;4919665;29;20044;-63
2021/10/13 06:48:14;;;;;;;24.65;13.45;;;;;;;-144.51;100.00;69251.94;4915432;29;20044;-63
2021/10/13 06:50:59;;;;;;;19.98;9.70;;;;;;;-144.51;100.00;69251.94;4915452;29;20407;-63
2021/10/13 06:53:46;;;;;;;;;;;;;;;-144.51;100.00;69251.94;4918565;29;20044;-63
2021/10/13 06:56:31;;;;;;;25.85;13.52;;;;;;;-144.51;100.00;69251.94;4917925;29;19915;-62
2021/10/13 06:59:16;;;;;;;17.42;10.80;;;;;;;-144.51;100.00;69251.94;4914325;29;20035;-62
2021/10/13 07:02:01;;;;;;;22.20;13.48;;;;;;;-144.51;100.00;69251.94;4917775;29;20048;-63
2021/10/13 07:04:46;;;;;;;22.90;10.07;;;;;;;-144.51;100.00;69251.94;4917980;29;20052;-63
2021/10/13 07:07:31;;;;;;;23.25;10.95;;;;;;;-144.51;100.00;69251.94;4922962;29;20040;-63
2021/10/13 07:10:18;;;;;;;27.90;15.75;;;;;;;-144.51;100.00;69251.94;4917841;29;20047;-63
2021/10/13 07:13:02;;;;;;;27.40;14.43;;;;;;;-144.51;100.00;69251.94;4918061;29;20036;-63
2021/10/13 07:15:47;;;;;;;27.25;14.65;;;;;;;-144.51;100.00;69251.94;4917643;29;20044;-63
2021/10/13 07:18:32;;;;;;;15.45;9.48;;;;;;;-144.51;100.00;69251.94;4917522;29;20040;-63
2021/10/13 07:21:17;;;;;;;18.35;9.45;;;;;;;-144.51;100.00;69251.94;4917700;29;20052;-62
2021/10/13 07:24:02;;;;;;;29.30;11.50;;;;;;;-144.51;100.00;69251.94;4917733;29;20056;-62
2021/10/13 07:26:47;;;;;;;;;;;;;;;-144.51;100.00;69251.94;4917806;29;20052;-62
2021/10/13 07:29:39;;;;;;;35.10;15.27;;;;;;;-144.51;100.00;69251.94;4917433;29;19916;-63
2021/10/13 07:32:30;;;;;;;31.83;14.75;;;;;;;-144.51;100.00;69251.94;4906600;29;20044;-63
2021/10/13 07:35:15;;;;;;;33.50;14.68;;;;;;;-144.51;100.00;69251.94;4920115;29;20411;-63
2021/10/13 07:38:00;;;;;;;;;;;;;;;-144.51;100.00;69251.94;4908759;29;20048;-63
2021/10/13 07:40:45;;;;;;;23.40;8.95;;;;;;;-144.51;100.00;69251.94;4912755;29;19923;-63
2021/10/13 07:43:34;;;;;;;31.50;15.05;;;;;;;-144.51;100.00;69251.94;4917833;29;20063;-63
2021/10/13 07:46:18;;;;;;;27.80;12.13;;;;;;;-144.51;100.00;69251.94;4916777;29;20044;-63
2021/10/13 07:49:03;;;;;;;22.55;11.07;;;;;;;-144.51;100.00;69251.94;4914894;29;20040;-63
2021/10/13 07:51:48;;;;;;;17.50;9.77;;;;;;;-144.51;100.00;69251.94;4917076;29;20044;-63
2021/10/13 07:54:33;;;;;;;20.15;11.27;;;;;;;-144.51;100.00;69251.94;4917058;29;20043;-63
2021/10/13 07:57:18;;;;;;;23.70;10.85;;;;;;;-144.51;100.00;69251.94;4916780;29;20504;-63
2021/10/13 08:00:05;;;;;;;16.85;8.40;;;;;;;-144.51;100.00;69251.94;4916838;29;20512;-63
2021/10/13 08:02:49;;;;;;;14.68;10.35;;;;;;;-144.51;100.00;69251.94;4913176;29;20052;-62
2021/10/13 08:05:34;;;;;;;11.10;7.15;;;;;;;-144.51;100.00;69251.94;4904846;29;20052;-62
2021/10/13 08:08:19;;;;;;;14.80;8.60;;;;;;;-144.51;100.00;69251.94;4911788;29;20035;-63
2021/10/13 08:11:04;;;;;;;;;;;;;;;-144.51;100.00;69251.94;4910593;29;20432;-62
2021/10/13 08:13:48;;;;;;;14.15;8.25;;;;;;;-144.51;100.00;69251.94;4904690;29;19915;-63
2021/10/13 08:16:33;;;;;;;29.58;12.02;;;;;;;-144.51;100.00;69251.94;4909760;29;20035;-62
2021/10/13 08:19:19;;;;;;;26.98;12.57;;;;;;;-144.51;100.00;69251.94;4907442;29;20415;-63
2021/10/13 08:22:04;;;;;;;24.02;13.00;;;;;;;-144.51;100.00;69251.94;4911929;29;20396;-63
2021/10/13 08:24:49;;;;;;;24.48;13.93;;;;;;;-144.51;100.00;69251.94;4909448;29;20036;-63
2021/10/13 08:27:34;;;;;;;20.83;11.57;;;;;;;-144.51;100.00;69251.94;4910038;29;20048;-62
2021/10/13 08:30:19;;;;;;;;;;;;;;;-144.51;100.00;69251.94;4915726;29;20036;-63
2021/10/13 08:33:04;;;;;;;17.98;12.10;;;;;;;-144.51;100.00;69251.94;4915230;29;19915;-62
2021/10/13 08:35:48;;;;;;;20.17;10.63;;;;;;;-144.51;100.00;69251.94;4916202;29;20484;-62
2021/10/13 08:38:33;;;;;;;14.27;9.27;;;;;;;-144.51;100.00;69251.94;4908084;29;20044;-62
2021/10/13 08:41:18;;;;;;;21.83;10.98;;;;;;;-144.51;100.00;69251.94;4916217;29;20420;-62
2021/10/13 08:44:04;;;;;;;25.00;14.60;;;;;;;-144.51;100.00;69251.94;4916204;29;20047;-63
2021/10/13 08:46:48;;;;;;;21.65;13.10;;;;;;;-144.51;100.00;69251.94;4916047;29;20048;-63
2021/10/13 08:49:33;;;;;;;;;;;;;;;-144.51;100.00;69251.94;4915957;29;20048;-63
2021/10/13 08:52:18;;;;;;;17.15;9.75;;;;;;;-144.51;100.00;69251.94;4915716;29;19915;-63
2021/10/13 08:55:03;;;;;;;16.95;8.63;;;;;;;-144.51;100.00;69251.94;4908275;29;20049;-63
2021/10/13 08:58:19;;;;;;;17.38;9.60;;;;;;;-144.51;100.00;69251.94;4919578;29;20040;-63
2021/10/13 09:01:04;;;;;;;14.13;8.75;;;;;;;-144.51;100.00;69251.94;4909985;29;20052;-62
2021/10/13 09:03:59;;;;;;;23.73;11.32;;;;;;;-144.51;100.00;69251.94;4915029;29;20415;-63
2021/10/13 09:06:44;;;;;;;25.23;10.52;;;;;;;-144.51;100.00;69251.94;4901034;29;20044;-63
2021/10/13 09:09:30;;;;;;;13.90;7.80;;;;;;;-144.51;100.00;69251.94;4900289;29;20052;-62
2021/10/13 09:12:28;;;;;;;27.00;13.55;;;;;;;-144.51;100.00;69251.94;4909438;29;20047;-63
2021/10/13 09:15:14;;;;;;;30.23;15.82;;;;;;;-144.51;100.00;69251.94;4907816;29;20306;-63
2021/10/13 09:18:03;;;;;;;33.13;16.20;;;;;;;-144.51;100.00;69251.94;4915967;29;20044;-62
2021/10/13 09:20:50;;;;;;;32.20;15.68;;;;;;;-144.51;100.00;69251.94;4915620;29;20040;-62
2021/10/13 09:23:35;;;;;;;27.83;14.77;;;;;;;-144.51;100.00;69251.94;4912310;29;20052;-63
2021/10/13 09:26:19;;;;;;;;;;;;;;;-144.51;100.00;69251.94;4904342;29;20048;-62
2021/10/13 09:29:07;;;;;;;24.42;15.75;;;;;;;-144.51;100.00;69251.94;4913483;29;19918;-63
2021/10/13 09:32:00;;;;;;;25.73;15.05;;;;;;;-144.51;100.00;69251.94;4915857;29;20044;-62
2021/10/13 09:34:50;;;;;;;23.63;14.18;;;;;;;-144.51;100.00;69251.94;4906702;29;20496;-63
2021/10/13 09:37:48;;;;;;;26.25;16.05;;;;;;;-144.51;100.00;69251.94;4899458;29;20052;-62
2021/10/13 09:40:35;;;;;;;26.70;15.98;;;;;;;-144.51;100.00;69251.94;4926324;29;20028;-63
2021/10/13 09:43:26;;;;;;;30.27;16.92;;;;;;;-144.51;100.00;69251.94;4913849;29;20044;-63
2021/10/13 09:46:14;;;;;;;29.33;17.52;;;;;;;-144.51;100.00;69251.94;4918412;29;20052;-63
2021/10/13 09:48:59;;;;;;;43.72;20.20;;;;;;;-144.51;100.00;69251.94;4917285;29;20040;-64
2021/10/13 09:51:44;;;;;;;;;;;;;;;-144.51;100.00;69251.94;4915898;29;20048;-63
2021/10/13 09:54:29;;;;;;;31.55;20.00;;;;;;;-144.51;100.00;69251.94;4915532;29;20289;-63
2021/10/13 09:57:40;;;;;;;30.92;19.65;;;;;;;-144.51;100.00;69251.94;4915142;29;20043;-62
2021/10/13 10:00:26;;;;;;;28.48;17.40;;;;;;;-144.51;100.00;69251.94;4915472;29;20040;-63
2021/10/13 10:03:13;;;;;;;32.35;19.23;;;;;;;-144.51;100.00;69251.94;4919195;29;20056;-62
2021/10/13 10:05:59;;;;;;;33.03;18.38;;;;;;;-144.51;100.00;69251.94;4918901;29;20048;-62
2021/10/13 10:08:53;;;;;;;34.17;18.48;;;;;;;-144.51;100.00;69251.94;4918964;29;20044;-63
2021/10/13 10:11:40;;;;;;;29.60;19.20;;;;;;;-144.51;100.00;69251.94;4918984;29;20043;-63
2021/10/13 10:14:31;;;;;;;29.13;17.17;;;;;;;-144.51;100.00;69251.94;4915266;29;20056;-62
2021/10/13 10:17:37;;;;;;;34.00;18.83;;;;;;;-144.51;100.00;69251.94;4914724;29;20037;-63
2021/10/13 10:20:39;;;;;;;22.55;15.38;;;;;;;-144.51;100.00;69251.94;4913193;29;20036;-63
2021/10/13 10:23:29;;;;;;;26.70;16.88;;;;;;;-144.51;100.00;69251.94;4921679;29;20055;-63
2021/10/13 10:26:27;;;;;;;26.92;17.17;;;;;;;-144.51;100.00;69251.94;4921399;29;20048;-63
2021/10/13 10:29:14;;;;;;;31.63;17.98;;;;;;;-144.51;100.00;69251.94;4921419;29;20047;-63
2021/10/13 10:31:58;;;;;;;28.73;17.58;;;;;;;-144.51;100.00;69251.94;4912716;29;20507;-63
2021/10/13 10:35:02;;;;;;;;;;;;;;;-144.51;100.00;69251.94;4909886;29;20048;-63
2021/10/13 10:37:49;;;;;;;30.25;18.13;;;;;;;-144.51;100.00;69251.94;4913807;29;19914;-62
2021/10/13 10:40:37;;;;;;;27.92;17.95;;;;;;;-144.51;100.00;69251.94;4918310;29;20040;-62
2021/10/13 10:43:23;;;;;;;32.50;18.98;;;;;;;-144.51;100.00;69251.94;4918404;29;20416;-63
2021/10/13 10:46:08;;;;;;;28.10;17.08;;;;;;;-144.51;100.00;69251.94;4918147;29;20403;-63
2021/10/13 10:48:52;;;;;;;23.63;13.18;;;;;;;-144.51;100.00;69251.94;4918216;29;20040;-62
2021/10/13 10:52:03;;;;;;;20.35;12.05;;;;;;;-144.51;100.00;69251.94;4918291;29;20047;-64
2021/10/13 10:54:52;;;;;;;32.90;17.10;;;;;;;-144.51;100.00;69251.94;4918126;29;20044;-64
2021/10/13 10:57:51;;;;;;;37.78;16.83;;;;;;;-144.51;100.00;69251.94;4917897;29;20516;-63
2021/10/13 11:00:36;;;;;;;28.75;16.70;;;;;;;-144.51;100.00;69251.94;4917842;29;20051;-63
2021/10/13 11:03:25;;;;;;;;;;;;;;;-144.51;100.00;69251.94;4917533;29;20052;-62
2021/10/13 11:06:17;;;;;;;26.08;16.90;;;;;;;-144.51;100.00;69251.94;4912577;29;19917;-62
2021/10/13 11:09:11;;;;;;;30.63;17.40;;;;;;;-144.51;100.00;69251.94;4916822;29;20044;-62
2021/10/13 11:11:57;;;;;;;32.33;16.05;;;;;;;-144.51;100.00;69251.94;4920689;29;20500;-62
2021/10/13 11:14:42;;;;;;;22.70;13.90;;;;;;;-144.51;100.00;69251.94;4920642;29;20048;-63
2021/10/13 11:17:27;;;;;;;;;;;;;;;-144.51;100.00;69251.94;4910082;29;20040;-65
2021/10/13 11:20:18;;;;;;;21.75;11.63;;;;;;;-144.51;100.00;69251.94;4917543;29;19915;-66
2021/10/13 11:23:05;;;;;;;27.02;15.45;;;;;;;-144.51;100.00;69251.94;4917640;29;20048;-65
2021/10/13 11:25:53;;;;;;;28.10;15.15;;;;;;;-144.51;100.00;69251.94;4917695;29;20055;-64
2021/10/13 11:28:40;;;;;;;27.40;15.25;;;;;;;-144.51;100.00;69251.94;4916517;29;20044;-65
2021/10/13 11:31:25;;;;;;;25.08;15.73;;;;;;;-144.51;100.00;69251.94;4913365;29;20040;-65
2021/10/13 11:34:12;;;;;;;25.20;14.18;;;;;;;-144.51;100.00;69251.94;4907338;29;20036;-65
2021/10/13 11:36:57;;;;;;;29.10;15.52;;;;;;;-144.51;100.00;69251.94;4913890;29;20044;-67
2021/10/13 11:39:45;;;;;;;;;;;;;;;-144.51;100.00;69251.94;4910612;29;20041;-65
2021/10/13 11:42:31;;;;;;;21.10;13.30;;;;;;;-144.51;100.00;69251.94;4910993;29;19919;-66
2021/10/13 11:45:19;;;;;;;20.88;13.05;;;;;;;-144.51;100.00;69251.94;4910622;29;20052;-65
2021/10/13 11:48:05;;;;;;;24.30;12.35;;;;;;;-144.51;100.00;69251.94;4910338;29;20044;-65
2021/10/13 11:50:50;;;;;;;20.92;13.90;;;;;;;-144.51;100.00;69251.94;4915601;29;20040;-66
2021/10/13 11:53:35;;;;;;;25.55;14.70;;;;;;;-144.51;100.00;69251.94;4906388;29;20040;-65
2021/10/13 11:56:22;;;;;;;22.05;14.45;;;;;;;-144.51;100.00;69251.94;4912824;29;20044;-67
2021/10/13 11:59:11;;;;;;;20.45;13.10;;;;;;;-144.51;100.00;69251.94;4915779;29;20048;-67
2021/10/13 12:02:09;;;;;;;19.88;13.15;;;;;;;-144.51;100.00;69251.94;4915651;29;20052;-67
2021/10/13 12:04:54;;;;;;;18.02;10.85;;;;;;;-144.51;100.00;69251.94;4909461;29;20404;-67
2021/10/13 12:07:44;;;;;;;21.60;12.82;;;;;;;-144.51;100.00;69251.94;4907113;29;20040;-67
2021/10/13 12:10:43;;;;;;;123.55;18.13;;;;;;;-144.51;100.00;69251.94;4905826;29;20037;-65
2021/10/13 12:13:30;;;;;;;36.65;11.90;;;;;;;-144.51;100.00;69251.94;4915717;29;20036;-68
2021/10/13 12:16:23;;;;;;;29.83;11.80;;;;;;;-144.51;100.00;69251.94;4913213;29;20048;-67
2021/10/13 12:19:16;;;;;;;19.33;12.00;;;;;;;-144.51;100.00;69251.94;4905064;29;20044;-69
2021/10/13 12:22:03;;;;;;;18.92;12.10;;;;;;;-144.51;100.00;69251.94;4915723;29;20052;-69
2021/10/13 12:24:48;;;;;;;18.40;11.05;;;;;;;-144.51;100.00;69251.94;4905543;29;20048;-69
2021/10/13 12:27:33;;;;;;;19.25;11.07;;;;;;;-144.51;100.00;69251.94;4909557;29;20044;-73
2021/10/13 12:30:33;;;;;;;19.50;10.25;;;;;;;-144.51;100.00;69251.94;4901067;29;20041;-73
2021/10/13 12:33:18;;;;;;;16.23;10.88;;;;;;;-144.51;100.00;69251.94;4915670;29;20040;-73
2021/10/13 12:36:09;;;;;;;15.25;8.82;;;;;;;-144.51;100.00;69251.94;4907164;29;20043;-69
2021/10/13 12:38:56;;;;;;;17.38;8.63;;;;;;;-144.51;100.00;69251.94;4912318;29;20052;-71